Terminal Aerodrome Forecast
Issued by NWS Rapid City, SD

Home | Current Version | Previous Version | Text Only | Print | Product List | Glossary On
Versions: 1 2 3 4 5 6 7 8 9 10 11 12 13 14 15 16 17 18 19 20 21 22 23 24 25 26 27 28
810
FTUS43 KUNR 241120
TAFRAP
TAF
KRAP 241120Z 2412/2512 34008KT P6SM BKN040
     FM241600 01011KT P6SM SCT250
     FM250500 15010KT P6SM SCT150=

USA.gov is the U.S. government's official web portal to all federal, state and local government web resources and services.